createdAt,value
2023-10-16T00:01:31.875Z,101521.44
2023-10-16T00:03:58.466Z,101515.97
2023-10-16T00:06:25.046Z,101523.06
2023-10-16T00:08:51.458Z,101519.66
2023-10-16T00:11:17.798Z,101517.69
2023-10-16T00:13:44.128Z,101522.41
2023-10-16T00:16:10.508Z,101518.59
2023-10-16T00:18:36.931Z,101516.94
2023-10-16T00:21:03.279Z,101517.69
2023-10-16T00:23:29.599Z,101510.72
2023-10-16T00:25:55.933Z,101507.63
2023-10-16T00:28:22.278Z,101505.69
2023-10-16T00:30:48.631Z,101507.22
2023-10-16T00:33:15.064Z,101511.56
2023-10-16T00:35:41.438Z,101511.69
2023-10-16T00:38:07.931Z,101505.38
2023-10-16T00:40:34.274Z,101497.16
2023-10-16T00:43:00.635Z,101491.34
2023-10-16T00:45:27.022Z,101491.34
2023-10-16T00:47:53.413Z,101493.66
2023-10-16T00:50:19.752Z,101488.28
2023-10-16T00:52:46.083Z,101487.06
2023-10-16T00:55:12.452Z,101489.50
2023-10-16T00:57:38.820Z,101482.38
2023-10-16T01:00:05.188Z,101484.03
2023-10-16T01:02:31.596Z,101487.53
2023-10-16T01:04:58.006Z,101482.06
2023-10-16T01:07:24.355Z,101484.03
2023-10-16T01:09:50.742Z,101482.94
2023-10-16T01:12:17.154Z,101475.16
2023-10-16T01:14:43.564Z,101477.91
2023-10-16T01:17:10.213Z,101467.72
2023-10-16T01:19:36.929Z,101470.47
2023-10-16T01:22:03.258Z,101473.97
2023-10-16T01:24:29.734Z,101470.88
2023-10-16T01:26:56.165Z,101472.09
2023-10-16T01:29:22.492Z,101469.38
2023-10-16T01:31:48.819Z,101469.69
2023-10-16T01:34:15.197Z,101460.81
2023-10-16T01:36:41.543Z,101461.16
2023-10-16T01:39:07.905Z,101455.03
2023-10-16T01:41:34.250Z,101454.28
2023-10-16T01:44:00.580Z,101453.41
2023-10-16T01:46:27.013Z,101446.50
2023-10-16T01:48:53.414Z,101450.78
2023-10-16T01:51:19.858Z,101448.03
2023-10-16T01:53:46.283Z,101451.97
2023-10-16T01:56:12.613Z,101448.50
2023-10-16T01:58:38.956Z,101444.63
2023-10-16T02:01:05.429Z,101436.44
2023-10-16T02:03:31.937Z,101428.25
2023-10-16T02:05:58.363Z,101428.34
2023-10-16T02:08:24.716Z,101423.22
2023-10-16T02:10:51.107Z,101419.25
2023-10-16T02:13:17.461Z,101415.44
2023-10-16T02:15:43.836Z,101414.69
2023-10-16T02:18:10.241Z,101413.47
2023-10-16T02:20:36.593Z,101416.22
2023-10-16T02:23:02.965Z,101413.47
2023-10-16T02:25:29.284Z,101404.50
2023-10-16T02:27:55.650Z,101401.47
2023-10-16T02:30:22.050Z,101397.97
2023-10-16T02:32:48.436Z,101393.69
2023-10-16T02:35:14.765Z,101396.44
2023-10-16T02:37:41.096Z,101389.75
2023-10-16T02:40:07.444Z,101389.00
2023-10-16T02:42:33.947Z,101397.31
2023-10-16T02:45:00.306Z,101402.00
2023-10-16T02:47:26.736Z,101396.22
2023-10-16T02:49:53.595Z,101390.75
2023-10-16T02:52:19.930Z,101390.41
2023-10-16T02:54:46.315Z,101401.81
2023-10-16T02:57:12.729Z,101396.22
2023-10-16T02:59:39.049Z,101385.28
2023-10-16T03:02:05.424Z,101392.25
2023-10-16T03:04:31.777Z,101393.91
2023-10-16T03:06:58.195Z,101385.28
2023-10-16T03:09:24.566Z,101399.72
2023-10-16T03:11:50.947Z,101393.50
2023-10-16T03:14:17.257Z,101390.88
2023-10-16T03:16:43.620Z,101380.72
2023-10-16T03:19:09.954Z,101383.09
2023-10-16T03:21:36.394Z,101390.09
2023-10-16T03:24:02.729Z,101384.63
2023-10-16T03:26:29.056Z,101385.41
2023-10-16T03:28:55.375Z,101380.81
2023-10-16T03:31:21.811Z,101376.13
2023-10-16T03:33:48.280Z,101379.59
2023-10-16T03:36:14.642Z,101371.84
2023-10-16T03:38:40.981Z,101369.13
2023-10-16T03:41:07.296Z,101370.31
2023-10-16T03:43:33.635Z,101360.56
2023-10-16T03:46:00.038Z,101370.31
2023-10-16T03:48:26.423Z,101368.78
2023-10-16T03:50:52.770Z,101367.78
2023-10-16T03:53:19.118Z,101365.72
2023-10-16T03:55:45.447Z,101367.69
2023-10-16T03:58:11.813Z,101373.91
2023-10-16T04:00:38.166Z,101372.84
2023-10-16T04:03:04.558Z,101372.38
2023-10-16T04:05:30.975Z,101375.56
2023-10-16T04:07:57.345Z,101367.47
2023-10-16T04:10:23.673Z,101375.69
2023-10-16T04:12:50.041Z,101375.69
2023-10-16T04:15:16.431Z,101382.34
2023-10-16T04:17:42.774Z,101378.84
2023-10-16T04:20:09.107Z,101371.09
2023-10-16T04:22:35.465Z,101376.44
2023-10-16T04:25:01.804Z,101375.69
2023-10-16T04:27:28.227Z,101369.44
2023-10-16T04:29:54.576Z,101372.19
2023-10-16T04:32:20.940Z,101375.03
2023-10-16T04:34:47.261Z,101369.09
2023-10-16T04:37:13.620Z,101369.09
2023-10-16T04:39:39.958Z,101361.00
2023-10-16T04:42:06.291Z,101356.66
2023-10-16T04:44:32.605Z,101354.34
2023-10-16T04:46:58.956Z,101349.34
2023-10-16T04:49:25.298Z,101343.13
2023-10-16T04:51:53.291Z,101339.16
2023-10-16T04:54:19.869Z,101332.50
2023-10-16T04:56:46.310Z,101326.72
2023-10-16T04:59:12.622Z,101331.84
2023-10-16T05:01:39.068Z,101329.09
2023-10-16T05:04:05.471Z,101318.94
2023-10-16T05:06:31.938Z,101326.06
2023-10-16T05:08:58.322Z,101326.81
2023-10-16T05:11:24.643Z,101327.59
2023-10-16T05:13:50.964Z,101329.22
2023-10-16T05:16:17.337Z,101324.19
2023-10-16T05:18:43.723Z,101320.25
2023-10-16T05:21:10.110Z,101317.94
2023-10-16T05:23:36.444Z,101313.69
2023-10-16T05:26:02.758Z,101316.78
2023-10-16T05:28:29.072Z,101314.44
2023-10-16T05:30:55.475Z,101313.25
2023-10-16T05:33:21.845Z,101309.75
2023-10-16T05:35:48.300Z,101316.78
2023-10-16T05:38:14.620Z,101324.59
2023-10-16T05:40:40.941Z,101318.38
2023-10-16T05:43:07.269Z,101331.25
2023-10-16T05:45:33.648Z,101328.97
2023-10-16T05:48:00.154Z,101327.03
2023-10-16T05:50:26.529Z,101334.00
2023-10-16T05:52:52.855Z,101331.72
2023-10-16T05:55:19.232Z,101333.25
2023-10-16T05:57:45.559Z,101333.69
2023-10-16T06:00:11.934Z,101329.88
2023-10-16T06:02:38.283Z,101323.63
2023-10-16T06:05:04.813Z,101329.88
2023-10-16T06:07:31.295Z,101333.00
2023-10-16T06:09:57.674Z,101331.06
2023-10-16T06:12:24.063Z,101330.28
2023-10-16T06:14:50.431Z,101328.00
2023-10-16T06:17:16.798Z,101324.41
2023-10-16T06:19:43.180Z,101320.25
2023-10-16T06:22:09.583Z,101316.75
2023-10-16T06:24:35.987Z,101315.53
2023-10-16T06:27:03.211Z,101326.47
2023-10-16T06:29:29.809Z,101324.16
2023-10-16T06:31:56.194Z,101319.47
2023-10-16T06:34:22.543Z,101310.50
2023-10-16T06:36:48.984Z,101309.00
2023-10-16T06:39:15.327Z,101317.97
2023-10-16T06:41:41.657Z,101316.41
2023-10-16T06:44:07.973Z,101320.34
2023-10-16T06:46:34.372Z,101320.34
2023-10-16T06:49:00.792Z,101316.41
2023-10-16T06:51:27.183Z,101313.34
2023-10-16T06:53:53.522Z,101320.69
2023-10-16T06:56:19.850Z,101316.06
2023-10-16T06:58:46.186Z,101310.31
2023-10-16T07:01:12.544Z,101313.34
2023-10-16T07:03:39.097Z,101314.56
2023-10-16T07:06:05.461Z,101313.81
2023-10-16T07:08:31.822Z,101310.63
2023-10-16T07:10:58.166Z,101309.88
2023-10-16T07:13:24.506Z,101302.41
2023-10-16T07:15:50.876Z,101307.88
2023-10-16T07:18:17.245Z,101306.38
2023-10-16T07:20:43.656Z,101305.59
2023-10-16T07:23:10.078Z,101309.97
2023-10-16T07:25:36.395Z,101308.34
2023-10-16T07:28:02.802Z,101311.50
2023-10-16T07:30:29.272Z,101321.34
2023-10-16T07:32:55.722Z,101316.19
2023-10-16T07:35:22.109Z,101318.72
2023-10-16T07:37:48.423Z,101312.94
2023-10-16T07:40:14.739Z,101322.22
2023-10-16T07:42:41.069Z,101324.94
2023-10-16T07:45:07.392Z,101327.00
2023-10-16T07:47:33.760Z,101324.69
2023-10-16T07:50:00.155Z,101325.56
2023-10-16T07:52:26.514Z,101325.91
2023-10-16T07:54:52.913Z,101332.56
2023-10-16T07:57:19.252Z,101336.84
2023-10-16T07:59:45.579Z,101328.66
2023-10-16T08:02:11.918Z,101327.88
2023-10-16T08:04:38.529Z,101327.13
2023-10-16T08:07:05.071Z,101326.13
2023-10-16T08:09:31.467Z,101319.78
2023-10-16T08:11:57.812Z,101320.31
2023-10-16T08:14:24.148Z,101308.53
2023-10-16T08:16:50.622Z,101314.09
2023-10-16T08:19:17.200Z,101307.91
2023-10-16T08:21:43.784Z,101312.59
2023-10-16T08:24:10.242Z,101305.69
2023-10-16T08:26:36.574Z,101299.69
2023-10-16T08:29:02.918Z,101308.63
2023-10-16T08:31:29.274Z,101298.38
2023-10-16T08:33:55.860Z,101291.72
2023-10-16T08:36:22.414Z,101302.97
2023-10-16T08:38:51.406Z,101295.09
2023-10-16T08:41:18.806Z,101283.09
2023-10-16T08:43:45.190Z,101290.84
2023-10-16T08:46:11.588Z,101281.22
2023-10-16T08:48:38.180Z,101282.00
2023-10-16T08:51:04.548Z,101281.78
2023-10-16T08:53:30.875Z,101272.63
2023-10-16T08:55:57.189Z,101272.94
2023-10-16T08:58:23.512Z,101262.88
2023-10-16T09:00:49.994Z,101257.44
2023-10-16T09:03:16.497Z,101258.97
2023-10-16T09:05:42.936Z,101261.81
2023-10-16T09:08:09.249Z,101258.19
2023-10-16T09:10:35.581Z,101256.25
2023-10-16T09:13:02.355Z,101257.44
2023-10-16T09:15:28.787Z,101255.47
2023-10-16T09:17:55.219Z,101252.28
2023-10-16T09:20:21.576Z,101247.59
2023-10-16T09:22:48.130Z,101250.78
2023-10-16T09:25:22.235Z,101244.66
2023-10-16T09:27:56.616Z,101248.56
2023-10-16T09:30:22.979Z,101241.81
2023-10-16T09:32:49.340Z,101244.09
2023-10-16T09:35:15.702Z,101238.22
2023-10-16T09:37:42.079Z,101237.13
2023-10-16T09:40:12.108Z,101234.81
2023-10-16T09:42:46.388Z,101233.31
2023-10-16T09:45:12.767Z,101225.88
2023-10-16T09:47:39.148Z,101225.44
2023-10-16T09:50:05.495Z,101227.38
2023-10-16T09:52:31.852Z,101225.00
2023-10-16T09:54:59.253Z,101223.34
2023-10-16T09:57:25.594Z,101218.97
2023-10-16T09:59:51.929Z,101215.38
2023-10-16T10:02:18.433Z,101216.13
2023-10-16T10:04:44.923Z,101204.56
2023-10-16T10:07:11.235Z,101205.75
2023-10-16T10:09:37.570Z,101197.44
2023-10-16T10:12:03.887Z,101194.91
2023-10-16T10:14:30.214Z,101188.47
2023-10-16T10:16:56.577Z,101188.16
2023-10-16T10:19:22.920Z,101197.13
2023-10-16T10:21:49.292Z,101185.50
2023-10-16T10:24:15.665Z,101178.66
2023-10-16T10:26:44.168Z,101175.94
2023-10-16T10:29:11.058Z,101170.47
2023-10-16T10:31:37.450Z,101169.69
2023-10-16T10:34:03.910Z,101171.84
2023-10-16T10:36:30.377Z,101165.75
2023-10-16T10:38:56.744Z,101167.75
2023-10-16T10:41:23.061Z,101161.38
2023-10-16T10:43:49.583Z,101152.09
2023-10-16T10:46:16.123Z,101155.16
2023-10-16T10:48:42.575Z,101149.25
2023-10-16T10:51:08.923Z,101150.13
2023-10-16T10:53:35.247Z,101155.94
2023-10-16T10:56:01.566Z,101154.94
2023-10-16T10:58:27.903Z,101153.19
2023-10-16T11:00:54.238Z,101158.97
2023-10-16T11:03:20.585Z,101158.81
2023-10-16T11:05:46.979Z,101164.34
2023-10-16T11:08:13.300Z,101149.56
2023-10-16T11:10:39.651Z,101143.47
2023-10-16T11:13:06.106Z,101135.03
2023-10-16T11:15:32.524Z,101133.38
2023-10-16T11:17:59.042Z,101117.22
2023-10-16T11:20:25.438Z,101120.53
2023-10-16T11:22:51.765Z,101112.22
2023-10-16T11:25:18.079Z,101118.41
2023-10-16T11:27:44.488Z,101105.78
2023-10-16T11:30:10.857Z,101096.50
2023-10-16T11:32:37.196Z,101095.50
2023-10-16T11:35:03.749Z,101094.78
2023-10-16T11:37:30.245Z,101089.78
2023-10-16T11:39:56.619Z,101077.63
2023-10-16T11:42:22.954Z,101072.94
2023-10-16T11:44:49.285Z,101066.16
2023-10-16T11:47:15.662Z,101063.97
2023-10-16T11:49:41.990Z,101060.94
2023-10-16T11:52:08.373Z,101064.91
2023-10-16T11:54:34.785Z,101070.63
2023-10-16T11:57:01.124Z,101054.38
2023-10-16T11:59:27.481Z,101052.16
2023-10-16T12:02:02.722Z,101029.88
2023-10-16T12:04:30.617Z,101029.44
2023-10-16T12:06:57.514Z,101027.59
2023-10-16T12:09:23.878Z,101022.47
2023-10-16T12:11:50.213Z,101007.59
2023-10-16T12:14:16.556Z,101005.19
2023-10-16T12:16:44.444Z,101012.91
2023-10-16T12:19:12.271Z,101000.78
2023-10-16T12:21:38.658Z,101019.03
2023-10-16T12:24:05.129Z,101018.59
2023-10-16T12:26:31.522Z,101016.84
2023-10-16T12:28:57.844Z,101014.25
2023-10-16T12:31:24.178Z,101008.38
2023-10-16T12:33:50.594Z,101007.06
2023-10-16T12:36:16.904Z,100998.88
2023-10-16T12:38:43.223Z,100996.91
2023-10-16T12:41:09.560Z,100986.88
2023-10-16T12:43:35.916Z,100974.69
2023-10-16T12:46:02.258Z,100977.50
2023-10-16T12:48:28.612Z,100965.81
2023-10-16T12:53:41.296Z,100975.16
2023-10-16T12:56:07.673Z,100967.97
2023-10-16T12:58:34.042Z,100966.19
2023-10-16T13:01:00.396Z,100960.53
2023-10-16T13:03:26.771Z,100958.13
2023-10-16T13:05:53.131Z,100949.16
2023-10-16T13:08:19.472Z,100947.63
2023-10-16T13:10:45.820Z,100955.94
2023-10-16T13:13:12.162Z,100944.84
2023-10-16T13:15:38.582Z,100952.34
2023-10-16T13:18:05.031Z,100952.78
2023-10-16T13:20:31.398Z,100942.94
2023-10-16T13:22:57.749Z,100931.88
2023-10-16T13:25:24.078Z,100930.19
2023-10-16T13:27:50.414Z,100941.44
2023-10-16T13:30:16.757Z,100928.97
2023-10-16T13:32:43.094Z,100934.63
2023-10-16T13:35:09.510Z,100933.09
2023-10-16T13:37:35.827Z,100933.53
2023-10-16T13:40:02.267Z,100935.72
2023-10-16T13:42:28.686Z,100941.88
2023-10-16T13:44:55.014Z,100931.72
2023-10-16T13:47:21.344Z,100925.47
2023-10-16T13:49:47.673Z,100919.25
2023-10-16T13:52:14.025Z,100922.75
2023-10-16T13:54:40.391Z,100921.09
2023-10-16T13:57:06.841Z,100916.72
2023-10-16T13:59:33.198Z,100915.31
2023-10-16T14:01:59.611Z,100910.63
2023-10-16T14:04:26.251Z,100903.75
2023-10-16T14:06:52.891Z,100905.94
2023-10-16T14:09:19.593Z,100902.69
2023-10-16T14:11:45.912Z,100905.44
2023-10-16T14:14:12.250Z,100895.28
2023-10-16T14:16:38.681Z,100894.03
2023-10-16T14:19:05.155Z,100891.19
2023-10-16T14:21:31.565Z,100888.59
2023-10-16T14:23:57.915Z,100886.94
2023-10-16T14:26:24.263Z,100888.44
2023-10-16T14:28:50.599Z,100867.50
2023-10-16T14:31:16.969Z,100879.50
2023-10-16T14:33:43.376Z,100872.19
2023-10-16T14:36:09.781Z,100874.75
2023-10-16T14:38:36.132Z,100875.69
2023-10-16T14:41:02.453Z,100880.38
2023-10-16T14:43:28.778Z,100868.09
2023-10-16T14:45:55.321Z,100867.63
2023-10-16T14:48:21.869Z,100860.34
2023-10-16T14:50:48.254Z,100855.94
2023-10-16T14:53:14.586Z,100848.84
2023-10-16T14:55:40.988Z,100851.38
2023-10-16T14:58:17.105Z,100854.75
2023-10-16T15:00:53.674Z,100854.75
2023-10-16T15:03:20.101Z,100850.81
2023-10-16T15:05:46.450Z,100846.13
2023-10-16T15:08:12.770Z,100845.94
2023-10-16T15:10:48.012Z,100858.69
2023-10-16T15:13:15.328Z,100849.59
2023-10-16T15:15:41.802Z,100845.78
2023-10-16T15:18:08.179Z,100842.94
2023-10-16T15:20:34.582Z,100835.66
2023-10-16T15:23:00.920Z,100842.63
2023-10-16T15:25:27.261Z,100824.59
2023-10-16T15:27:53.624Z,100826.25
2023-10-16T15:30:20.096Z,100820.78
2023-10-16T15:32:46.513Z,100816.81
2023-10-16T15:35:13.033Z,100819.69
2023-10-16T15:37:39.373Z,100817.28
2023-10-16T15:40:05.745Z,100808.47
2023-10-16T15:42:32.083Z,100819.56
2023-10-16T15:44:58.409Z,100818.06
2023-10-16T15:47:24.728Z,100822.75
2023-10-16T15:49:51.064Z,100827.59
2023-10-16T15:52:17.453Z,100831.72
2023-10-16T15:54:43.830Z,100826.25
2023-10-16T15:57:10.164Z,100825.78
2023-10-16T15:59:36.487Z,100819.56
2023-10-16T16:02:02.883Z,100819.69
2023-10-16T16:04:29.487Z,100820.31
2023-10-16T16:06:55.958Z,100821.69
2023-10-16T16:09:22.367Z,100818.50
2023-10-16T16:11:48.694Z,100821.84
2023-10-16T16:14:17.295Z,100824.59
2023-10-16T16:16:45.604Z,100823.81
2023-10-16T16:19:12.044Z,100826.56
2023-10-16T16:21:38.425Z,100819.56
2023-10-16T16:24:04.745Z,100810.75
2023-10-16T16:26:31.077Z,100816.81
2023-10-16T16:28:57.419Z,100820.31
2023-10-16T16:31:23.766Z,100823.94
2023-10-16T16:33:50.178Z,100817.59
2023-10-16T16:36:16.753Z,100821.56
2023-10-16T16:38:43.619Z,100824.72
2023-10-16T16:41:09.981Z,100820.31
2023-10-16T16:43:36.318Z,100823.06
2023-10-16T16:46:02.697Z,100816.53
2023-10-16T16:48:29.149Z,100832.16
2023-10-16T16:50:55.735Z,100828.22
2023-10-16T16:53:22.070Z,100825.63
2023-10-16T16:55:48.378Z,100825.63
2023-10-16T16:58:14.706Z,100831.72
2023-10-16T17:00:41.023Z,100835.22
2023-10-16T17:03:07.425Z,100827.88
2023-10-16T17:05:33.811Z,100836.66
2023-10-16T17:08:00.147Z,100823.78
2023-10-16T17:10:26.557Z,100832.25
2023-10-16T17:12:52.947Z,100823.72
2023-10-16T17:15:19.284Z,100832.03
2023-10-16T17:17:45.710Z,100834.75
2023-10-16T17:20:12.198Z,100829.78
2023-10-16T17:22:55.832Z,100834.00
2023-10-16T17:25:24.841Z,100839.16
2023-10-16T17:27:51.163Z,100842.19
2023-10-16T17:30:17.553Z,100843.41
2023-10-16T17:32:44.119Z,100841.88
2023-10-16T17:35:10.566Z,100843.84
2023-10-16T17:37:36.889Z,100842.53
2023-10-16T17:40:03.232Z,100842.97
2023-10-16T17:42:29.548Z,100848.09
2023-10-16T17:44:55.917Z,100842.19
2023-10-16T17:47:22.288Z,100840.56
2023-10-16T17:49:48.630Z,100832.94
2023-10-16T17:52:14.953Z,100835.53
2023-10-16T17:54:41.319Z,100831.41
2023-10-16T17:57:07.671Z,100831.41
2023-10-16T17:59:34.020Z,100827.47
2023-10-16T18:02:00.396Z,100816.38
2023-10-16T18:04:26.902Z,100823.38
2023-10-16T18:06:53.381Z,100815.91
2023-10-16T18:09:19.751Z,100809.72
2023-10-16T18:11:46.126Z,100803.81
2023-10-16T18:14:12.461Z,100805.97
2023-10-16T18:16:38.919Z,100801.53
2023-10-16T18:19:05.304Z,100801.22
2023-10-16T18:21:31.623Z,100797.72
2023-10-16T18:23:57.968Z,100794.09
2023-10-16T18:26:24.327Z,100795.75
2023-10-16T18:28:50.642Z,100790.44
2023-10-16T18:31:17.030Z,100796.34
2023-10-16T18:33:43.429Z,100799.25
2023-10-16T18:36:09.772Z,100784.53
2023-10-16T18:38:36.145Z,100786.63
2023-10-16T18:41:02.469Z,100783.78
2023-10-16T18:43:28.802Z,100789.03
2023-10-16T18:45:55.205Z,100776.16
2023-10-16T18:48:21.633Z,100779.50
2023-10-16T18:50:48.069Z,100761.59
2023-10-16T18:53:14.459Z,100769.06
2023-10-16T18:55:40.786Z,100761.31
2023-10-16T18:58:07.119Z,100778.44
2023-10-16T19:00:33.463Z,100769.94
2023-10-16T19:02:59.887Z,100775.38
2023-10-16T19:05:26.370Z,100762.75
2023-10-16T19:07:52.729Z,100765.22
2023-10-16T19:10:19.080Z,100757.94
2023-10-16T19:12:45.442Z,100744.81
2023-10-16T19:15:11.801Z,100737.31
2023-10-16T19:17:38.236Z,100734.69
2023-10-16T19:20:04.610Z,100730.47
2023-10-16T19:22:30.932Z,100733.63
2023-10-16T19:24:57.278Z,100728.25
2023-10-16T19:27:23.647Z,100728.69
2023-10-16T19:29:50.095Z,100734.69
2023-10-16T19:32:16.485Z,100737.31
2023-10-16T19:34:42.820Z,100746.25
2023-10-16T19:37:09.161Z,100742.03
2023-10-16T19:39:35.493Z,100754.16
2023-10-16T19:42:01.846Z,100753.56
2023-10-16T19:44:28.291Z,100748.56
2023-10-16T19:46:54.704Z,100752.59
2023-10-16T19:49:21.043Z,100772.06
2023-10-16T19:51:47.369Z,100771.94
2023-10-16T19:54:14.482Z,100780.63
2023-10-16T19:56:41.550Z,100780.00
2023-10-16T19:59:07.903Z,100788.72
2023-10-16T20:01:34.293Z,100787.66
2023-10-16T20:04:00.830Z,100788.94
2023-10-16T20:06:27.280Z,100790.78
2023-10-16T20:08:53.687Z,100794.41
2023-10-16T20:11:20.064Z,100793.50
2023-10-16T20:13:46.398Z,100792.88
2023-10-16T20:16:13.137Z,100801.41
2023-10-16T20:18:40.059Z,100792.88
2023-10-16T20:21:06.444Z,100800.16
2023-10-16T20:23:32.808Z,100800.00
2023-10-16T20:25:59.139Z,100797.44
2023-10-16T20:28:25.492Z,100803.16
2023-10-16T20:30:51.835Z,100801.97
2023-10-16T20:33:18.248Z,100800.75
2023-10-16T20:35:44.736Z,100818.06
2023-10-16T20:38:11.159Z,100814.06
2023-10-16T20:40:37.481Z,100817.56
2023-10-16T20:43:03.803Z,100821.69
2023-10-16T20:45:30.238Z,100825.19
2023-10-16T20:47:56.687Z,100817.44
2023-10-16T20:50:23.075Z,100805.88
2023-10-16T20:52:49.406Z,100798.03
2023-10-16T20:55:15.726Z,100794.97
2023-10-16T20:57:42.084Z,100794.53
2023-10-16T21:00:08.434Z,100788.00
2023-10-16T21:02:34.812Z,100788.56
2023-10-16T21:05:01.128Z,100782.09
2023-10-16T21:07:27.483Z,100777.88
2023-10-16T21:09:53.846Z,100772.84
2023-10-16T21:12:20.211Z,100759.84
2023-10-16T21:14:46.581Z,100752.09
2023-10-16T21:17:12.965Z,100750.72
2023-10-16T21:19:39.297Z,100737.81
2023-10-16T21:22:05.637Z,100741.50
2023-10-16T21:24:32.038Z,100748.13
2023-10-16T21:26:58.428Z,100753.31
2023-10-16T21:29:24.832Z,100758.44
2023-10-16T21:31:51.177Z,100756.03
2023-10-16T21:34:17.499Z,100757.50
2023-10-16T21:36:43.815Z,100743.09
2023-10-16T21:39:10.171Z,100741.00
2023-10-16T21:41:36.503Z,100728.91
2023-10-16T21:44:02.913Z,100734.47
2023-10-16T21:46:29.344Z,100733.38
2023-10-16T21:48:55.804Z,100740.38
2023-10-16T21:51:22.243Z,100734.34
2023-10-16T21:53:48.637Z,100731.00
2023-10-16T21:56:14.958Z,100717.09
2023-10-16T21:58:41.300Z,100716.88
2023-10-16T22:01:07.896Z,100720.38
2023-10-16T22:03:34.498Z,100718.41
2023-10-16T22:06:01.003Z,100715.50
2023-10-16T22:08:27.372Z,100713.09
2023-10-16T22:10:53.744Z,100717.78
2023-10-16T22:13:20.135Z,100709.59
2023-10-16T22:15:46.534Z,100707.50
2023-10-16T22:18:13.010Z,100713.72
2023-10-16T22:20:39.438Z,100706.75
2023-10-16T22:23:05.770Z,100705.97
2023-10-16T22:25:32.115Z,100699.03
2023-10-16T22:27:58.475Z,100692.66
2023-10-16T22:30:25.997Z,100695.97
2023-10-16T22:32:52.475Z,100686.72
2023-10-16T22:35:18.883Z,100688.09
2023-10-16T22:37:45.264Z,100682.91
2023-10-16T22:40:11.641Z,100678.69
2023-10-16T22:42:37.964Z,100673.34
2023-10-16T22:45:04.316Z,100673.22
2023-10-16T22:47:30.701Z,100677.19
2023-10-16T22:49:57.067Z,100680.38
2023-10-16T22:52:23.420Z,100682.44
2023-10-16T22:54:49.866Z,100678.06
2023-10-16T22:57:16.354Z,100679.47
2023-10-16T22:59:42.714Z,100687.91
2023-10-16T23:02:09.142Z,100675.94
2023-10-16T23:04:35.513Z,100689.09
2023-10-16T23:07:01.872Z,100689.28
2023-10-16T23:09:28.222Z,100704.09
2023-10-16T23:11:54.626Z,100695.91
2023-10-16T23:14:20.959Z,100693.50
2023-10-16T23:16:47.372Z,100692.72
2023-10-16T23:19:13.791Z,100686.97
2023-10-16T23:21:40.117Z,100683.94
2023-10-16T23:24:06.478Z,100680.13
2023-10-16T23:26:32.821Z,100681.66
2023-10-16T23:28:59.145Z,100682.22
2023-10-16T23:31:25.559Z,100682.41
2023-10-16T23:33:51.910Z,100684.06
2023-10-16T23:36:18.313Z,100691.03
2023-10-16T23:38:44.687Z,100683.75
2023-10-16T23:41:11.076Z,100680.72
2023-10-16T23:43:37.414Z,100676.03
2023-10-16T23:46:03.833Z,100673.31
2023-10-16T23:48:30.244Z,100671.31
2023-10-16T23:50:56.618Z,100666.31
2023-10-16T23:53:22.950Z,100679.50
2023-10-16T23:55:49.271Z,100680.72
2023-10-16T23:58:15.639Z,100678.75
